sensor_id;sensor_type;location;lat;lon;timestamp;P1;durP1;ratioP1;P2;durP2;ratioP2
67597;SDS011;62026;39.230;9.122;2023-04-15T00:00:31;7.20;;;1.75;;
67597;SDS011;62026;39.230;9.122;2023-04-15T00:02:58;6.25;;;1.50;;
67597;SDS011;62026;39.230;9.122;2023-04-15T00:05:28;8.80;;;1.38;;
67597;SDS011;62026;39.230;9.122;2023-04-15T00:07:55;8.90;;;1.30;;
67597;SDS011;62026;39.230;9.122;2023-04-15T00:10:23;8.65;;;1.50;;
67597;SDS011;62026;39.230;9.122;2023-04-15T00:12:50;7.47;;;1.35;;
67597;SDS011;62026;39.230;9.122;2023-04-15T00:15:16;7.15;;;1.17;;
67597;SDS011;62026;39.230;9.122;2023-04-15T00:17:43;9.98;;;1.30;;
67597;SDS011;62026;39.230;9.122;2023-04-15T00:20:09;5.40;;;1.27;;
67597;SDS011;62026;39.230;9.122;2023-04-15T00:22:36;10.50;;;1.45;;
67597;SDS011;62026;39.230;9.122;2023-04-15T00:25:02;4.85;;;1.20;;
67597;SDS011;62026;39.230;9.122;2023-04-15T00:27:28;7.95;;;1.48;;
67597;SDS011;62026;39.230;9.122;2023-04-15T00:29:54;5.78;;;1.17;;
67597;SDS011;62026;39.230;9.122;2023-04-15T00:32:21;5.93;;;0.98;;
67597;SDS011;62026;39.230;9.122;2023-04-15T00:34:47;9.70;;;1.40;;
67597;SDS011;62026;39.230;9.122;2023-04-15T00:37:14;10.27;;;1.50;;
67597;SDS011;62026;39.230;9.122;2023-04-15T00:39:40;10.82;;;1.20;;
67597;SDS011;62026;39.230;9.122;2023-04-15T00:42:06;7.80;;;1.35;;
67597;SDS011;62026;39.230;9.122;2023-04-15T00:44:32;5.28;;;1.27;;
67597;SDS011;62026;39.230;9.122;2023-04-15T00:46:59;7.40;;;1.20;;
67597;SDS011;62026;39.230;9.122;2023-04-15T00:49:27;8.73;;;1.75;;
67597;SDS011;62026;39.230;9.122;2023-04-15T00:51:54;8.57;;;1.27;;
67597;SDS011;62026;39.230;9.122;2023-04-15T00:54:20;8.13;;;1.33;;
67597;SDS011;62026;39.230;9.122;2023-04-15T00:56:46;10.35;;;1.40;;
67597;SDS011;62026;39.230;9.122;2023-04-15T00:59:13;12.07;;;2.22;;
67597;SDS011;62026;39.230;9.122;2023-04-15T01:01:40;6.70;;;1.35;;
67597;SDS011;62026;39.230;9.122;2023-04-15T01:04:06;7.53;;;1.50;;
67597;SDS011;62026;39.230;9.122;2023-04-15T01:06:34;6.30;;;1.55;;
67597;SDS011;62026;39.230;9.122;2023-04-15T01:09:00;8.63;;;1.17;;
67597;SDS011;62026;39.230;9.122;2023-04-15T01:11:27;10.13;;;1.25;;
67597;SDS011;62026;39.230;9.122;2023-04-15T01:13:57;5.38;;;1.40;;
67597;SDS011;62026;39.230;9.122;2023-04-15T01:16:24;7.85;;;1.25;;
67597;SDS011;62026;39.230;9.122;2023-04-15T01:18:51;6.90;;;1.20;;
67597;SDS011;62026;39.230;9.122;2023-04-15T01:21:17;8.35;;;1.35;;
67597;SDS011;62026;39.230;9.122;2023-04-15T01:23:45;6.18;;;1.23;;
67597;SDS011;62026;39.230;9.122;2023-04-15T01:26:12;11.82;;;1.45;;
67597;SDS011;62026;39.230;9.122;2023-04-15T01:28:39;9.95;;;1.88;;
67597;SDS011;62026;39.230;9.122;2023-04-15T01:33:37;6.85;;;1.23;;
67597;SDS011;62026;39.230;9.122;2023-04-15T01:36:05;5.93;;;1.10;;
67597;SDS011;62026;39.230;9.122;2023-04-15T01:38:35;7.60;;;1.35;;
67597;SDS011;62026;39.230;9.122;2023-04-15T01:41:02;13.20;;;1.75;;
67597;SDS011;62026;39.230;9.122;2023-04-15T01:43:29;11.77;;;1.40;;
67597;SDS011;62026;39.230;9.122;2023-04-15T01:45:55;7.25;;;1.40;;
67597;SDS011;62026;39.230;9.122;2023-04-15T01:48:21;4.82;;;1.15;;
67597;SDS011;62026;39.230;9.122;2023-04-15T01:50:47;8.02;;;1.58;;
67597;SDS011;62026;39.230;9.122;2023-04-15T01:53:13;5.07;;;1.27;;
67597;SDS011;62026;39.230;9.122;2023-04-15T01:55:40;7.15;;;1.40;;
67597;SDS011;62026;39.230;9.122;2023-04-15T01:58:06;7.60;;;1.48;;
67597;SDS011;62026;39.230;9.122;2023-04-15T02:00:32;7.80;;;1.40;;
67597;SDS011;62026;39.230;9.122;2023-04-15T02:02:58;7.32;;;1.38;;
67597;SDS011;62026;39.230;9.122;2023-04-15T02:05:24;9.63;;;1.50;;
67597;SDS011;62026;39.230;9.122;2023-04-15T02:07:50;8.07;;;1.55;;
67597;SDS011;62026;39.230;9.122;2023-04-15T02:10:18;11.18;;;1.70;;
67597;SDS011;62026;39.230;9.122;2023-04-15T02:12:44;7.57;;;1.33;;
67597;SDS011;62026;39.230;9.122;2023-04-15T02:15:10;7.00;;;1.42;;
67597;SDS011;62026;39.230;9.122;2023-04-15T02:17:36;10.38;;;1.20;;
67597;SDS011;62026;39.230;9.122;2023-04-15T02:20:02;9.48;;;1.42;;
67597;SDS011;62026;39.230;9.122;2023-04-15T02:22:33;6.78;;;1.45;;
67597;SDS011;62026;39.230;9.122;2023-04-15T02:24:59;8.55;;;1.40;;
67597;SDS011;62026;39.230;9.122;2023-04-15T02:27:25;7.25;;;1.40;;
67597;SDS011;62026;39.230;9.122;2023-04-15T02:29:52;6.18;;;1.20;;
67597;SDS011;62026;39.230;9.122;2023-04-15T02:32:18;4.95;;;1.00;;
67597;SDS011;62026;39.230;9.122;2023-04-15T02:34:47;5.95;;;1.20;;
67597;SDS011;62026;39.230;9.122;2023-04-15T02:37:13;7.82;;;1.20;;
67597;SDS011;62026;39.230;9.122;2023-04-15T02:39:40;7.97;;;1.10;;
67597;SDS011;62026;39.230;9.122;2023-04-15T02:42:06;7.95;;;1.30;;
67597;SDS011;62026;39.230;9.122;2023-04-15T02:44:32;5.95;;;1.15;;
67597;SDS011;62026;39.230;9.122;2023-04-15T02:47:02;5.38;;;1.23;;
67597;SDS011;62026;39.230;9.122;2023-04-15T02:49:29;6.57;;;1.10;;
67597;SDS011;62026;39.230;9.122;2023-04-15T02:51:55;8.80;;;1.48;;
67597;SDS011;62026;39.230;9.122;2023-04-15T02:54:22;4.90;;;1.20;;
67597;SDS011;62026;39.230;9.122;2023-04-15T02:56:48;5.38;;;1.08;;
67597;SDS011;62026;39.230;9.122;2023-04-15T02:59:15;7.30;;;1.10;;
67597;SDS011;62026;39.230;9.122;2023-04-15T03:01:41;10.57;;;1.50;;
67597;SDS011;62026;39.230;9.122;2023-04-15T03:04:07;8.05;;;1.27;;
67597;SDS011;62026;39.230;9.122;2023-04-15T03:06:34;5.50;;;1.10;;
67597;SDS011;62026;39.230;9.122;2023-04-15T03:09:00;3.92;;;1.00;;
67597;SDS011;62026;39.230;9.122;2023-04-15T03:11:31;8.15;;;1.40;;
67597;SDS011;62026;39.230;9.122;2023-04-15T03:13:57;12.93;;;1.75;;
67597;SDS011;62026;39.230;9.122;2023-04-15T03:16:29;4.18;;;1.25;;
67597;SDS011;62026;39.230;9.122;2023-04-15T03:18:56;5.85;;;1.48;;
67597;SDS011;62026;39.230;9.122;2023-04-15T03:21:23;6.72;;;0.98;;
67597;SDS011;62026;39.230;9.122;2023-04-15T03:23:50;8.02;;;1.15;;
67597;SDS011;62026;39.230;9.122;2023-04-15T03:26:23;8.27;;;1.10;;
67597;SDS011;62026;39.230;9.122;2023-04-15T03:28:56;8.10;;;1.38;;
67597;SDS011;62026;39.230;9.122;2023-04-15T03:31:22;9.40;;;1.50;;
67597;SDS011;62026;39.230;9.122;2023-04-15T03:33:48;5.10;;;1.20;;
67597;SDS011;62026;39.230;9.122;2023-04-15T03:36:15;10.68;;;1.35;;
67597;SDS011;62026;39.230;9.122;2023-04-15T03:38:41;6.18;;;1.17;;
67597;SDS011;62026;39.230;9.122;2023-04-15T03:41:07;9.10;;;1.30;;
67597;SDS011;62026;39.230;9.122;2023-04-15T03:43:33;9.48;;;1.52;;
67597;SDS011;62026;39.230;9.122;2023-04-15T03:46:00;9.05;;;1.40;;
67597;SDS011;62026;39.230;9.122;2023-04-15T03:48:26;9.45;;;1.10;;
67597;SDS011;62026;39.230;9.122;2023-04-15T03:50:52;13.18;;;1.67;;
67597;SDS011;62026;39.230;9.122;2023-04-15T03:53:19;13.43;;;1.52;;
67597;SDS011;62026;39.230;9.122;2023-04-15T03:55:46;6.65;;;1.10;;
67597;SDS011;62026;39.230;9.122;2023-04-15T03:58:12;7.47;;;1.40;;
67597;SDS011;62026;39.230;9.122;2023-04-15T04:00:38;16.55;;;1.58;;
67597;SDS011;62026;39.230;9.122;2023-04-15T04:03:05;8.45;;;1.33;;
67597;SDS011;62026;39.230;9.122;2023-04-15T04:05:32;6.40;;;1.52;;
67597;SDS011;62026;39.230;9.122;2023-04-15T04:08:01;5.43;;;1.25;;
67597;SDS011;62026;39.230;9.122;2023-04-15T04:10:27;6.65;;;1.60;;
67597;SDS011;62026;39.230;9.122;2023-04-15T04:12:53;6.18;;;1.45;;
67597;SDS011;62026;39.230;9.122;2023-04-15T04:15:19;6.90;;;1.23;;
67597;SDS011;62026;39.230;9.122;2023-04-15T04:17:45;9.05;;;1.30;;
67597;SDS011;62026;39.230;9.122;2023-04-15T04:20:11;7.35;;;1.30;;
67597;SDS011;62026;39.230;9.122;2023-04-15T04:22:37;6.88;;;1.15;;
67597;SDS011;62026;39.230;9.122;2023-04-15T04:25:05;4.85;;;1.27;;
67597;SDS011;62026;39.230;9.122;2023-04-15T04:27:33;5.28;;;1.35;;
67597;SDS011;62026;39.230;9.122;2023-04-15T04:29:59;5.70;;;1.10;;
67597;SDS011;62026;39.230;9.122;2023-04-15T04:32:25;6.05;;;1.20;;
67597;SDS011;62026;39.230;9.122;2023-04-15T04:34:52;4.25;;;0.85;;
67597;SDS011;62026;39.230;9.122;2023-04-15T04:37:18;6.88;;;1.17;;
67597;SDS011;62026;39.230;9.122;2023-04-15T04:39:44;6.15;;;1.05;;
67597;SDS011;62026;39.230;9.122;2023-04-15T04:42:10;6.22;;;1.13;;
67597;SDS011;62026;39.230;9.122;2023-04-15T04:44:36;2.75;;;0.80;;
67597;SDS011;62026;39.230;9.122;2023-04-15T04:47:02;6.78;;;1.77;;
67597;SDS011;62026;39.230;9.122;2023-04-15T04:49:28;4.47;;;1.02;;
67597;SDS011;62026;39.230;9.122;2023-04-15T04:51:54;7.57;;;1.00;;
67597;SDS011;62026;39.230;9.122;2023-04-15T04:54:20;7.55;;;1.20;;
67597;SDS011;62026;39.230;9.122;2023-04-15T04:56:46;5.97;;;1.35;;
67597;SDS011;62026;39.230;9.122;2023-04-15T04:59:12;5.47;;;0.90;;
67597;SDS011;62026;39.230;9.122;2023-04-15T05:01:38;5.57;;;0.90;;
67597;SDS011;62026;39.230;9.122;2023-04-15T05:04:05;5.63;;;1.20;;
67597;SDS011;62026;39.230;9.122;2023-04-15T05:06:31;6.45;;;1.23;;
67597;SDS011;62026;39.230;9.122;2023-04-15T05:08:58;3.20;;;0.90;;
67597;SDS011;62026;39.230;9.122;2023-04-15T05:11:25;4.15;;;0.88;;
67597;SDS011;62026;39.230;9.122;2023-04-15T05:13:51;3.38;;;0.90;;
67597;SDS011;62026;39.230;9.122;2023-04-15T05:16:17;5.30;;;1.00;;
67597;SDS011;62026;39.230;9.122;2023-04-15T05:18:44;3.85;;;0.95;;
67597;SDS011;62026;39.230;9.122;2023-04-15T05:21:10;3.58;;;0.98;;
67597;SDS011;62026;39.230;9.122;2023-04-15T05:23:37;5.43;;;0.85;;
67597;SDS011;62026;39.230;9.122;2023-04-15T05:26:03;6.10;;;0.65;;
67597;SDS011;62026;39.230;9.122;2023-04-15T05:28:29;4.10;;;0.80;;
67597;SDS011;62026;39.230;9.122;2023-04-15T05:30:55;4.10;;;0.77;;
67597;SDS011;62026;39.230;9.122;2023-04-15T05:33:22;2.83;;;0.82;;
67597;SDS011;62026;39.230;9.122;2023-04-15T05:35:48;2.50;;;0.50;;
67597;SDS011;62026;39.230;9.122;2023-04-15T05:38:14;2.88;;;0.85;;
67597;SDS011;62026;39.230;9.122;2023-04-15T05:40:40;3.85;;;1.08;;
67597;SDS011;62026;39.230;9.122;2023-04-15T05:43:07;3.22;;;0.98;;
67597;SDS011;62026;39.230;9.122;2023-04-15T05:45:33;1.15;;;0.60;;
67597;SDS011;62026;39.230;9.122;2023-04-15T05:47:58;6.63;;;0.80;;
67597;SDS011;62026;39.230;9.122;2023-04-15T05:50:24;3.60;;;0.90;;
67597;SDS011;62026;39.230;9.122;2023-04-15T05:52:50;2.63;;;0.88;;
67597;SDS011;62026;39.230;9.122;2023-04-15T05:55:16;4.78;;;0.80;;
67597;SDS011;62026;39.230;9.122;2023-04-15T05:57:42;2.90;;;0.73;;
67597;SDS011;62026;39.230;9.122;2023-04-15T06:00:09;3.40;;;0.60;;
67597;SDS011;62026;39.230;9.122;2023-04-15T06:02:36;4.05;;;0.75;;
67597;SDS011;62026;39.230;9.122;2023-04-15T06:05:02;5.30;;;1.00;;
67597;SDS011;62026;39.230;9.122;2023-04-15T06:07:34;4.15;;;1.10;;
67597;SDS011;62026;39.230;9.122;2023-04-15T06:10:01;7.05;;;2.53;;
67597;SDS011;62026;39.230;9.122;2023-04-15T06:12:28;6.85;;;1.13;;
67597;SDS011;62026;39.230;9.122;2023-04-15T06:14:54;4.47;;;1.02;;
67597;SDS011;62026;39.230;9.122;2023-04-15T06:17:21;3.63;;;1.08;;
67597;SDS011;62026;39.230;9.122;2023-04-15T06:19:46;2.45;;;0.70;;
67597;SDS011;62026;39.230;9.122;2023-04-15T06:22:14;4.03;;;1.05;;
67597;SDS011;62026;39.230;9.122;2023-04-15T06:24:40;3.17;;;0.90;;
67597;SDS011;62026;39.230;9.122;2023-04-15T06:27:06;2.97;;;1.00;;
67597;SDS011;62026;39.230;9.122;2023-04-15T06:29:32;3.03;;;0.82;;
67597;SDS011;62026;39.230;9.122;2023-04-15T06:31:58;3.63;;;0.98;;
67597;SDS011;62026;39.230;9.122;2023-04-15T06:34:24;2.75;;;0.80;;
67597;SDS011;62026;39.230;9.122;2023-04-15T06:36:51;4.22;;;1.10;;
67597;SDS011;62026;39.230;9.122;2023-04-15T06:39:18;3.15;;;0.98;;
67597;SDS011;62026;39.230;9.122;2023-04-15T06:41:44;3.45;;;1.10;;
67597;SDS011;62026;39.230;9.122;2023-04-15T06:44:11;2.15;;;1.00;;
67597;SDS011;62026;39.230;9.122;2023-04-15T06:46:37;4.13;;;1.02;;
67597;SDS011;62026;39.230;9.122;2023-04-15T06:49:02;6.13;;;1.35;;
67597;SDS011;62026;39.230;9.122;2023-04-15T06:51:29;5.57;;;1.00;;
67597;SDS011;62026;39.230;9.122;2023-04-15T06:53:55;2.25;;;0.70;;
67597;SDS011;62026;39.230;9.122;2023-04-15T06:56:21;5.32;;;1.50;;
67597;SDS011;62026;39.230;9.122;2023-04-15T06:58:47;6.82;;;1.70;;
67597;SDS011;62026;39.230;9.122;2023-04-15T07:01:14;4.53;;;2.00;;
67597;SDS011;62026;39.230;9.122;2023-04-15T07:03:39;6.22;;;3.20;;
67597;SDS011;62026;39.230;9.122;2023-04-15T07:06:06;8.50;;;3.72;;
67597;SDS011;62026;39.230;9.122;2023-04-15T07:08:33;8.48;;;3.83;;
67597;SDS011;62026;39.230;9.122;2023-04-15T07:10:59;13.52;;;4.80;;
67597;SDS011;62026;39.230;9.122;2023-04-15T07:13:26;7.97;;;2.85;;
67597;SDS011;62026;39.230;9.122;2023-04-15T07:15:56;5.65;;;2.42;;
67597;SDS011;62026;39.230;9.122;2023-04-15T07:18:22;4.35;;;1.60;;
67597;SDS011;62026;39.230;9.122;2023-04-15T07:20:48;4.32;;;1.08;;
67597;SDS011;62026;39.230;9.122;2023-04-15T07:23:14;4.72;;;1.20;;
67597;SDS011;62026;39.230;9.122;2023-04-15T07:25:40;2.53;;;1.05;;
67597;SDS011;62026;39.230;9.122;2023-04-15T07:28:06;1.63;;;0.80;;
67597;SDS011;62026;39.230;9.122;2023-04-15T07:30:32;4.20;;;0.73;;
67597;SDS011;62026;39.230;9.122;2023-04-15T07:32:58;3.50;;;1.25;;
67597;SDS011;62026;39.230;9.122;2023-04-15T07:35:25;4.93;;;1.05;;
67597;SDS011;62026;39.230;9.122;2023-04-15T07:37:51;1.33;;;0.70;;
67597;SDS011;62026;39.230;9.122;2023-04-15T07:40:17;2.90;;;0.80;;
67597;SDS011;62026;39.230;9.122;2023-04-15T07:42:44;2.38;;;0.70;;
67597;SDS011;62026;39.230;9.122;2023-04-15T07:45:10;4.05;;;0.90;;
67597;SDS011;62026;39.230;9.122;2023-04-15T07:47:37;1.92;;;0.85;;
67597;SDS011;62026;39.230;9.122;2023-04-15T07:50:03;3.22;;;0.75;;
67597;SDS011;62026;39.230;9.122;2023-04-15T07:52:29;4.85;;;0.88;;
67597;SDS011;62026;39.230;9.122;2023-04-15T07:54:55;2.83;;;0.90;;
67597;SDS011;62026;39.230;9.122;2023-04-15T07:57:21;2.90;;;0.80;;
67597;SDS011;62026;39.230;9.122;2023-04-15T07:59:47;2.92;;;0.95;;
67597;SDS011;62026;39.230;9.122;2023-04-15T08:02:13;4.45;;;0.90;;
67597;SDS011;62026;39.230;9.122;2023-04-15T08:04:39;5.80;;;0.93;;
67597;SDS011;62026;39.230;9.122;2023-04-15T08:07:05;2.17;;;0.93;;
67597;SDS011;62026;39.230;9.122;2023-04-15T08:09:31;2.10;;;0.80;;
67597;SDS011;62026;39.230;9.122;2023-04-15T08:11:57;3.72;;;0.85;;
67597;SDS011;62026;39.230;9.122;2023-04-15T08:14:23;1.15;;;0.60;;
67597;SDS011;62026;39.230;9.122;2023-04-15T08:16:49;3.30;;;0.90;;
67597;SDS011;62026;39.230;9.122;2023-04-15T08:19:15;1.23;;;0.73;;
67597;SDS011;62026;39.230;9.122;2023-04-15T08:21:41;2.60;;;0.60;;
67597;SDS011;62026;39.230;9.122;2023-04-15T08:24:07;1.88;;;0.68;;
67597;SDS011;62026;39.230;9.122;2023-04-15T08:26:34;2.33;;;0.57;;
67597;SDS011;62026;39.230;9.122;2023-04-15T08:29:00;4.90;;;0.80;;
67597;SDS011;62026;39.230;9.122;2023-04-15T08:31:26;1.67;;;0.60;;
67597;SDS011;62026;39.230;9.122;2023-04-15T08:33:55;1.67;;;0.50;;
67597;SDS011;62026;39.230;9.122;2023-04-15T08:36:22;5.18;;;0.70;;
67597;SDS011;62026;39.230;9.122;2023-04-15T08:38:48;3.42;;;0.90;;
67597;SDS011;62026;39.230;9.122;2023-04-15T08:43:53;5.38;;;0.95;;
67597;SDS011;62026;39.230;9.122;2023-04-15T08:46:25;3.22;;;0.80;;
67597;SDS011;62026;39.230;9.122;2023-04-15T08:48:52;3.90;;;0.93;;
67597;SDS011;62026;39.230;9.122;2023-04-15T08:51:22;3.35;;;0.63;;
67597;SDS011;62026;39.230;9.122;2023-04-15T08:53:49;6.50;;;0.80;;
67597;SDS011;62026;39.230;9.122;2023-04-15T08:56:17;2.38;;;0.68;;
67597;SDS011;62026;39.230;9.122;2023-04-15T08:58:44;2.15;;;0.63;;
67597;SDS011;62026;39.230;9.122;2023-04-15T09:01:12;2.60;;;0.70;;
67597;SDS011;62026;39.230;9.122;2023-04-15T09:03:38;2.42;;;0.80;;
67597;SDS011;62026;39.230;9.122;2023-04-15T09:06:06;3.55;;;0.80;;
67597;SDS011;62026;39.230;9.122;2023-04-15T09:08:32;3.58;;;0.70;;
67597;SDS011;62026;39.230;9.122;2023-04-15T09:11:00;5.80;;;0.93;;
67597;SDS011;62026;39.230;9.122;2023-04-15T09:13:27;4.05;;;0.80;;
67597;SDS011;62026;39.230;9.122;2023-04-15T09:15:54;3.08;;;0.55;;
67597;SDS011;62026;39.230;9.122;2023-04-15T09:18:35;5.03;;;0.70;;
67597;SDS011;62026;39.230;9.122;2023-04-15T09:21:06;1.70;;;0.47;;
67597;SDS011;62026;39.230;9.122;2023-04-15T09:26:03;3.15;;;0.70;;
67597;SDS011;62026;39.230;9.122;2023-04-15T09:28:30;5.35;;;0.70;;
67597;SDS011;62026;39.230;9.122;2023-04-15T09:30:57;2.85;;;0.60;;
67597;SDS011;62026;39.230;9.122;2023-04-15T09:33:25;2.85;;;0.70;;
67597;SDS011;62026;39.230;9.122;2023-04-15T09:35:56;3.22;;;0.80;;
67597;SDS011;62026;39.230;9.122;2023-04-15T09:38:27;4.72;;;0.70;;
67597;SDS011;62026;39.230;9.122;2023-04-15T09:40:53;3.17;;;0.73;;
67597;SDS011;62026;39.230;9.122;2023-04-15T09:43:20;5.15;;;0.80;;
67597;SDS011;62026;39.230;9.122;2023-04-15T09:45:47;6.70;;;0.90;;
67597;SDS011;62026;39.230;9.122;2023-04-15T09:48:19;4.00;;;0.90;;
67597;SDS011;62026;39.230;9.122;2023-04-15T09:50:53;3.90;;;0.63;;
67597;SDS011;62026;39.230;9.122;2023-04-15T09:53:23;4.65;;;1.05;;
67597;SDS011;62026;39.230;9.122;2023-04-15T09:55:51;4.28;;;0.82;;
67597;SDS011;62026;39.230;9.122;2023-04-15T09:58:20;3.67;;;0.65;;
67597;SDS011;62026;39.230;9.122;2023-04-15T10:00:56;4.15;;;0.98;;
67597;SDS011;62026;39.230;9.122;2023-04-15T10:03:27;5.78;;;1.00;;
67597;SDS011;62026;39.230;9.122;2023-04-15T10:05:59;8.70;;;0.80;;
67597;SDS011;62026;39.230;9.122;2023-04-15T10:08:30;6.28;;;1.10;;
67597;SDS011;62026;39.230;9.122;2023-04-15T10:10:59;5.30;;;0.90;;
67597;SDS011;62026;39.230;9.122;2023-04-15T10:13:28;3.60;;;0.90;;
67597;SDS011;62026;39.230;9.122;2023-04-15T10:16:19;9.07;;;1.13;;
67597;SDS011;62026;39.230;9.122;2023-04-15T10:18:50;6.63;;;1.30;;
67597;SDS011;62026;39.230;9.122;2023-04-15T10:21:20;5.45;;;1.20;;
67597;SDS011;62026;39.230;9.122;2023-04-15T10:23:48;6.55;;;1.20;;
67597;SDS011;62026;39.230;9.122;2023-04-15T10:26:15;11.68;;;1.58;;
67597;SDS011;62026;39.230;9.122;2023-04-15T10:28:42;7.32;;;1.52;;
67597;SDS011;62026;39.230;9.122;2023-04-15T10:31:12;8.02;;;1.20;;
67597;SDS011;62026;39.230;9.122;2023-04-15T10:33:39;4.68;;;1.30;;
67597;SDS011;62026;39.230;9.122;2023-04-15T10:36:08;7.10;;;1.58;;
67597;SDS011;62026;39.230;9.122;2023-04-15T10:41:11;7.32;;;1.35;;
67597;SDS011;62026;39.230;9.122;2023-04-15T10:43:56;10.55;;;1.20;;
67597;SDS011;62026;39.230;9.122;2023-04-15T10:46:42;7.38;;;1.30;;
67597;SDS011;62026;39.230;9.122;2023-04-15T10:56:50;6.43;;;1.40;;
67597;SDS011;62026;39.230;9.122;2023-04-15T10:59:31;5.68;;;1.35;;
67597;SDS011;62026;39.230;9.122;2023-04-15T11:07:40;7.75;;;1.30;;
67597;SDS011;62026;39.230;9.122;2023-04-15T11:12:53;5.03;;;1.35;;
67597;SDS011;62026;39.230;9.122;2023-04-15T11:18:16;5.57;;;1.50;;
67597;SDS011;62026;39.230;9.122;2023-04-15T11:20:55;6.13;;;1.40;;
67597;SDS011;62026;39.230;9.122;2023-04-15T11:23:28;8.57;;;1.15;;
67597;SDS011;62026;39.230;9.122;2023-04-15T11:26:02;7.57;;;1.40;;
67597;SDS011;62026;39.230;9.122;2023-04-15T11:28:33;6.38;;;1.38;;
67597;SDS011;62026;39.230;9.122;2023-04-15T11:31:07;8.63;;;1.40;;
67597;SDS011;62026;39.230;9.122;2023-04-15T11:33:45;10.82;;;1.33;;
67597;SDS011;62026;39.230;9.122;2023-04-15T11:36:19;5.20;;;1.20;;
67597;SDS011;62026;39.230;9.122;2023-04-15T11:38:48;7.57;;;1.20;;
67597;SDS011;62026;39.230;9.122;2023-04-15T11:41:15;5.22;;;1.05;;
67597;SDS011;62026;39.230;9.122;2023-04-15T11:43:46;4.00;;;1.27;;
67597;SDS011;62026;39.230;9.122;2023-04-15T11:46:12;3.78;;;1.05;;
67597;SDS011;62026;39.230;9.122;2023-04-15T11:48:41;6.22;;;1.10;;
67597;SDS011;62026;39.230;9.122;2023-04-15T11:51:09;4.90;;;1.30;;
67597;SDS011;62026;39.230;9.122;2023-04-15T11:56:11;8.40;;;2.05;;
67597;SDS011;62026;39.230;9.122;2023-04-15T11:58:45;10.25;;;1.90;;
67597;SDS011;62026;39.230;9.122;2023-04-15T12:01:14;10.32;;;2.13;;
67597;SDS011;62026;39.230;9.122;2023-04-15T12:03:42;7.60;;;1.40;;
67597;SDS011;62026;39.230;9.122;2023-04-15T12:11:41;7.28;;;1.38;;
67597;SDS011;62026;39.230;9.122;2023-04-15T12:14:09;12.77;;;1.52;;
67597;SDS011;62026;39.230;9.122;2023-04-15T12:16:50;6.63;;;0.93;;
67597;SDS011;62026;39.230;9.122;2023-04-15T12:22:02;12.95;;;1.27;;
67597;SDS011;62026;39.230;9.122;2023-04-15T12:24:40;6.93;;;1.10;;
67597;SDS011;62026;39.230;9.122;2023-04-15T12:27:11;8.23;;;1.48;;
67597;SDS011;62026;39.230;9.122;2023-04-15T12:29:40;10.52;;;1.48;;
67597;SDS011;62026;39.230;9.122;2023-04-15T12:34:43;3.25;;;0.75;;
67597;SDS011;62026;39.230;9.122;2023-04-15T12:37:18;8.70;;;1.08;;
67597;SDS011;62026;39.230;9.122;2023-04-15T12:39:46;6.25;;;1.40;;
67597;SDS011;62026;39.230;9.122;2023-04-15T12:42:14;4.57;;;1.05;;
67597;SDS011;62026;39.230;9.122;2023-04-15T12:44:41;4.85;;;1.00;;
67597;SDS011;62026;39.230;9.122;2023-04-15T12:47:08;5.93;;;1.00;;
67597;SDS011;62026;39.230;9.122;2023-04-15T12:49:35;6.18;;;1.13;;
67597;SDS011;62026;39.230;9.122;2023-04-15T12:52:03;7.80;;;1.20;;
67597;SDS011;62026;39.230;9.122;2023-04-15T12:54:30;4.57;;;1.20;;
67597;SDS011;62026;39.230;9.122;2023-04-15T12:56:57;7.20;;;1.45;;
67597;SDS011;62026;39.230;9.122;2023-04-15T12:59:25;7.85;;;1.27;;
67597;SDS011;62026;39.230;9.122;2023-04-15T13:01:52;6.88;;;1.10;;
67597;SDS011;62026;39.230;9.122;2023-04-15T13:04:18;5.95;;;0.98;;
67597;SDS011;62026;39.230;9.122;2023-04-15T13:06:45;3.40;;;1.00;;
67597;SDS011;62026;39.230;9.122;2023-04-15T13:09:12;4.68;;;0.80;;
67597;SDS011;62026;39.230;9.122;2023-04-15T13:11:38;6.80;;;0.95;;
67597;SDS011;62026;39.230;9.122;2023-04-15T13:14:06;7.75;;;1.10;;
67597;SDS011;62026;39.230;9.122;2023-04-15T13:16:35;6.10;;;1.08;;
67597;SDS011;62026;39.230;9.122;2023-04-15T13:19:02;11.70;;;1.42;;
67597;SDS011;62026;39.230;9.122;2023-04-15T13:21:29;6.38;;;1.33;;
67597;SDS011;62026;39.230;9.122;2023-04-15T13:23:59;5.28;;;1.00;;
67597;SDS011;62026;39.230;9.122;2023-04-15T13:26:25;7.43;;;1.50;;
67597;SDS011;62026;39.230;9.122;2023-04-15T13:28:52;4.50;;;0.90;;
67597;SDS011;62026;39.230;9.122;2023-04-15T13:31:18;5.93;;;1.10;;
67597;SDS011;62026;39.230;9.122;2023-04-15T13:33:44;2.75;;;0.90;;
67597;SDS011;62026;39.230;9.122;2023-04-15T13:36:10;7.63;;;1.00;;
67597;SDS011;62026;39.230;9.122;2023-04-15T13:38:36;7.28;;;1.00;;
67597;SDS011;62026;39.230;9.122;2023-04-15T13:41:02;3.72;;;1.05;;
67597;SDS011;62026;39.230;9.122;2023-04-15T13:43:28;10.35;;;2.08;;
67597;SDS011;62026;39.230;9.122;2023-04-15T13:45:54;4.85;;;0.77;;
67597;SDS011;62026;39.230;9.122;2023-04-15T13:48:20;10.32;;;1.38;;
67597;SDS011;62026;39.230;9.122;2023-04-15T13:50:46;5.00;;;0.80;;
67597;SDS011;62026;39.230;9.122;2023-04-15T13:53:12;9.13;;;1.00;;
67597;SDS011;62026;39.230;9.122;2023-04-15T13:55:38;7.28;;;1.00;;
67597;SDS011;62026;39.230;9.122;2023-04-15T13:58:09;5.25;;;1.20;;
67597;SDS011;62026;39.230;9.122;2023-04-15T14:00:36;4.72;;;0.90;;
67597;SDS011;62026;39.230;9.122;2023-04-15T14:03:02;4.00;;;0.90;;
67597;SDS011;62026;39.230;9.122;2023-04-15T14:05:28;8.15;;;1.02;;
67597;SDS011;62026;39.230;9.122;2023-04-15T14:07:55;6.85;;;0.98;;
67597;SDS011;62026;39.230;9.122;2023-04-15T14:10:21;5.18;;;1.08;;
67597;SDS011;62026;39.230;9.122;2023-04-15T14:12:47;15.68;;;1.45;;
67597;SDS011;62026;39.230;9.122;2023-04-15T14:15:13;6.38;;;1.13;;
67597;SDS011;62026;39.230;9.122;2023-04-15T14:17:39;7.68;;;1.60;;
67597;SDS011;62026;39.230;9.122;2023-04-15T14:20:07;8.48;;;1.52;;
67597;SDS011;62026;39.230;9.122;2023-04-15T14:22:33;11.35;;;1.48;;
67597;SDS011;62026;39.230;9.122;2023-04-15T14:24:59;27.75;;;2.35;;
67597;SDS011;62026;39.230;9.122;2023-04-15T14:27:25;6.90;;;1.20;;
67597;SDS011;62026;39.230;9.122;2023-04-15T14:29:52;8.20;;;1.48;;
67597;SDS011;62026;39.230;9.122;2023-04-15T14:32:18;8.30;;;1.20;;
67597;SDS011;62026;39.230;9.122;2023-04-15T14:34:45;10.32;;;1.52;;
67597;SDS011;62026;39.230;9.122;2023-04-15T14:37:11;7.63;;;1.40;;
67597;SDS011;62026;39.230;9.122;2023-04-15T14:39:37;12.45;;;1.20;;
67597;SDS011;62026;39.230;9.122;2023-04-15T14:42:03;8.10;;;1.25;;
67597;SDS011;62026;39.230;9.122;2023-04-15T14:44:29;7.80;;;1.33;;
67597;SDS011;62026;39.230;9.122;2023-04-15T14:46:55;6.32;;;1.10;;
67597;SDS011;62026;39.230;9.122;2023-04-15T14:49:21;7.38;;;1.38;;
67597;SDS011;62026;39.230;9.122;2023-04-15T14:51:47;8.80;;;1.38;;
67597;SDS011;62026;39.230;9.122;2023-04-15T14:54:14;5.95;;;1.45;;
67597;SDS011;62026;39.230;9.122;2023-04-15T14:56:40;10.30;;;1.33;;
67597;SDS011;62026;39.230;9.122;2023-04-15T14:59:06;8.02;;;1.15;;
67597;SDS011;62026;39.230;9.122;2023-04-15T15:01:32;9.43;;;1.40;;
67597;SDS011;62026;39.230;9.122;2023-04-15T15:03:58;5.60;;;1.13;;
67597;SDS011;62026;39.230;9.122;2023-04-15T15:06:25;6.07;;;0.90;;
67597;SDS011;62026;39.230;9.122;2023-04-15T15:08:51;4.85;;;1.10;;
67597;SDS011;62026;39.230;9.122;2023-04-15T15:11:17;4.30;;;0.82;;
67597;SDS011;62026;39.230;9.122;2023-04-15T15:13:43;7.75;;;1.50;;
67597;SDS011;62026;39.230;9.122;2023-04-15T15:16:09;6.55;;;1.15;;
67597;SDS011;62026;39.230;9.122;2023-04-15T15:18:35;7.15;;;1.20;;
67597;SDS011;62026;39.230;9.122;2023-04-15T15:21:01;6.53;;;1.50;;
67597;SDS011;62026;39.230;9.122;2023-04-15T15:23:27;3.85;;;1.10;;
67597;SDS011;62026;39.230;9.122;2023-04-15T15:25:53;11.68;;;1.42;;
67597;SDS011;62026;39.230;9.122;2023-04-15T15:28:19;7.00;;;1.40;;